sensor_id;sensor_type;location;lat;lon;timestamp;P1;durP1;ratioP1;P2;durP2;ratioP2
21472;SDS011;10898;48.072;11.682;2024-01-30T00:00:38;7.82;;;6.15;;
21472;SDS011;10898;48.072;11.682;2024-01-30T00:02:40;10.73;;;6.72;;
21472;SDS011;10898;48.072;11.682;2024-01-30T00:04:42;10.82;;;7.50;;
21472;SDS011;10898;48.072;11.682;2024-01-30T00:06:44;8.45;;;6.38;;
21472;SDS011;10898;48.072;11.682;2024-01-30T00:08:46;7.55;;;5.90;;
21472;SDS011;10898;48.072;11.682;2024-01-30T00:10:50;7.47;;;5.80;;
21472;SDS011;10898;48.072;11.682;2024-01-30T00:12:52;8.35;;;6.55;;
21472;SDS011;10898;48.072;11.682;2024-01-30T00:14:54;8.00;;;5.93;;
21472;SDS011;10898;48.072;11.682;2024-01-30T00:16:56;8.00;;;5.47;;
21472;SDS011;10898;48.072;11.682;2024-01-30T00:18:57;6.57;;;5.07;;
21472;SDS011;10898;48.072;11.682;2024-01-30T00:20:59;9.60;;;6.30;;
21472;SDS011;10898;48.072;11.682;2024-01-30T00:23:01;7.25;;;5.78;;
21472;SDS011;10898;48.072;11.682;2024-01-30T00:25:03;8.15;;;5.30;;
21472;SDS011;10898;48.072;11.682;2024-01-30T00:27:05;9.23;;;5.75;;
21472;SDS011;10898;48.072;11.682;2024-01-30T00:29:07;8.30;;;5.70;;
21472;SDS011;10898;48.072;11.682;2024-01-30T00:31:09;5.63;;;4.85;;
21472;SDS011;10898;48.072;11.682;2024-01-30T00:33:13;6.70;;;5.38;;
21472;SDS011;10898;48.072;11.682;2024-01-30T00:35:16;6.03;;;5.07;;
21472;SDS011;10898;48.072;11.682;2024-01-30T00:37:18;7.97;;;5.35;;
21472;SDS011;10898;48.072;11.682;2024-01-30T00:39:20;8.75;;;5.55;;
21472;SDS011;10898;48.072;11.682;2024-01-30T00:41:22;6.88;;;5.63;;
21472;SDS011;10898;48.072;11.682;2024-01-30T00:43:24;8.32;;;5.18;;
21472;SDS011;10898;48.072;11.682;2024-01-30T00:45:26;5.95;;;5.07;;
21472;SDS011;10898;48.072;11.682;2024-01-30T00:47:28;4.97;;;3.90;;
21472;SDS011;10898;48.072;11.682;2024-01-30T00:49:30;5.78;;;4.75;;
21472;SDS011;10898;48.072;11.682;2024-01-30T00:51:32;5.80;;;5.10;;
21472;SDS011;10898;48.072;11.682;2024-01-30T00:53:34;6.40;;;4.82;;
21472;SDS011;10898;48.072;11.682;2024-01-30T00:55:35;7.20;;;5.10;;
21472;SDS011;10898;48.072;11.682;2024-01-30T00:57:37;6.65;;;5.20;;
21472;SDS011;10898;48.072;11.682;2024-01-30T00:59:39;5.15;;;4.65;;
21472;SDS011;10898;48.072;11.682;2024-01-30T01:01:41;6.28;;;4.65;;
21472;SDS011;10898;48.072;11.682;2024-01-30T01:03:43;6.68;;;4.65;;
21472;SDS011;10898;48.072;11.682;2024-01-30T01:05:45;6.05;;;5.20;;
21472;SDS011;10898;48.072;11.682;2024-01-30T01:07:47;7.82;;;4.95;;
21472;SDS011;10898;48.072;11.682;2024-01-30T01:09:49;4.85;;;4.35;;
21472;SDS011;10898;48.072;11.682;2024-01-30T01:11:51;7.47;;;5.05;;
21472;SDS011;10898;48.072;11.682;2024-01-30T01:13:53;7.60;;;4.72;;
21472;SDS011;10898;48.072;11.682;2024-01-30T01:15:55;6.15;;;4.22;;
21472;SDS011;10898;48.072;11.682;2024-01-30T01:17:56;6.30;;;4.38;;
21472;SDS011;10898;48.072;11.682;2024-01-30T01:19:58;4.53;;;4.13;;
21472;SDS011;10898;48.072;11.682;2024-01-30T01:22:00;4.88;;;4.25;;
21472;SDS011;10898;48.072;11.682;2024-01-30T01:24:02;6.55;;;4.55;;
21472;SDS011;10898;48.072;11.682;2024-01-30T01:26:05;6.10;;;4.80;;
21472;SDS011;10898;48.072;11.682;2024-01-30T01:28:06;5.22;;;4.72;;
21472;SDS011;10898;48.072;11.682;2024-01-30T01:30:09;7.22;;;4.75;;
21472;SDS011;10898;48.072;11.682;2024-01-30T01:32:13;5.88;;;4.35;;
21472;SDS011;10898;48.072;11.682;2024-01-30T01:34:15;3.70;;;3.40;;
21472;SDS011;10898;48.072;11.682;2024-01-30T01:36:17;5.38;;;4.30;;
21472;SDS011;10898;48.072;11.682;2024-01-30T01:38:18;5.05;;;4.03;;
21472;SDS011;10898;48.072;11.682;2024-01-30T01:40:23;5.55;;;4.18;;
21472;SDS011;10898;48.072;11.682;2024-01-30T01:42:26;4.88;;;3.60;;
21472;SDS011;10898;48.072;11.682;2024-01-30T01:44:28;6.68;;;4.13;;
21472;SDS011;10898;48.072;11.682;2024-01-30T01:46:30;5.88;;;4.07;;
21472;SDS011;10898;48.072;11.682;2024-01-30T01:48:34;5.13;;;3.90;;
21472;SDS011;10898;48.072;11.682;2024-01-30T01:50:36;5.88;;;5.18;;
21472;SDS011;10898;48.072;11.682;2024-01-30T01:52:39;4.88;;;3.90;;
21472;SDS011;10898;48.072;11.682;2024-01-30T01:54:42;5.47;;;4.22;;
21472;SDS011;10898;48.072;11.682;2024-01-30T01:56:44;4.22;;;3.80;;
21472;SDS011;10898;48.072;11.682;2024-01-30T01:58:46;4.50;;;3.72;;
21472;SDS011;10898;48.072;11.682;2024-01-30T02:00:50;5.70;;;3.70;;
21472;SDS011;10898;48.072;11.682;2024-01-30T02:02:54;5.82;;;4.72;;
21472;SDS011;10898;48.072;11.682;2024-01-30T02:04:57;5.45;;;4.05;;
21472;SDS011;10898;48.072;11.682;2024-01-30T02:06:59;4.28;;;3.88;;
21472;SDS011;10898;48.072;11.682;2024-01-30T02:09:01;4.13;;;3.60;;
21472;SDS011;10898;48.072;11.682;2024-01-30T02:11:03;4.72;;;3.92;;
21472;SDS011;10898;48.072;11.682;2024-01-30T02:13:05;4.88;;;3.70;;
21472;SDS011;10898;48.072;11.682;2024-01-30T02:15:06;3.10;;;2.80;;
21472;SDS011;10898;48.072;11.682;2024-01-30T02:17:09;5.57;;;4.10;;
21472;SDS011;10898;48.072;11.682;2024-01-30T02:19:11;4.45;;;3.92;;
21472;SDS011;10898;48.072;11.682;2024-01-30T02:21:16;4.53;;;3.40;;
21472;SDS011;10898;48.072;11.682;2024-01-30T02:23:19;5.32;;;3.78;;
21472;SDS011;10898;48.072;11.682;2024-01-30T02:25:30;3.70;;;3.33;;
21472;SDS011;10898;48.072;11.682;2024-01-30T02:27:32;5.18;;;3.83;;
21472;SDS011;10898;48.072;11.682;2024-01-30T02:29:34;3.78;;;3.33;;
21472;SDS011;10898;48.072;11.682;2024-01-30T02:31:36;5.85;;;3.92;;
21472;SDS011;10898;48.072;11.682;2024-01-30T02:33:38;3.65;;;3.35;;
21472;SDS011;10898;48.072;11.682;2024-01-30T02:35:40;3.90;;;3.50;;
21472;SDS011;10898;48.072;11.682;2024-01-30T02:37:42;3.67;;;3.38;;
21472;SDS011;10898;48.072;11.682;2024-01-30T02:39:44;3.58;;;3.28;;
21472;SDS011;10898;48.072;11.682;2024-01-30T02:41:45;3.75;;;3.40;;
21472;SDS011;10898;48.072;11.682;2024-01-30T02:43:47;3.78;;;3.47;;
21472;SDS011;10898;48.072;11.682;2024-01-30T02:45:49;3.60;;;3.30;;
21472;SDS011;10898;48.072;11.682;2024-01-30T02:47:51;4.18;;;3.53;;
21472;SDS011;10898;48.072;11.682;2024-01-30T02:49:53;4.70;;;3.47;;
21472;SDS011;10898;48.072;11.682;2024-01-30T02:51:56;3.55;;;3.25;;
21472;SDS011;10898;48.072;11.682;2024-01-30T02:53:58;4.05;;;3.47;;
21472;SDS011;10898;48.072;11.682;2024-01-30T02:56:00;3.88;;;3.47;;
21472;SDS011;10898;48.072;11.682;2024-01-30T02:58:03;3.97;;;3.30;;
21472;SDS011;10898;48.072;11.682;2024-01-30T03:00:05;3.63;;;3.33;;
21472;SDS011;10898;48.072;11.682;2024-01-30T03:02:10;4.53;;;3.38;;
21472;SDS011;10898;48.072;11.682;2024-01-30T03:04:12;3.85;;;3.30;;
21472;SDS011;10898;48.072;11.682;2024-01-30T03:06:14;3.70;;;3.38;;
21472;SDS011;10898;48.072;11.682;2024-01-30T03:08:18;4.13;;;3.78;;
21472;SDS011;10898;48.072;11.682;2024-01-30T03:10:20;5.82;;;3.55;;
21472;SDS011;10898;48.072;11.682;2024-01-30T03:12:22;3.72;;;3.35;;
21472;SDS011;10898;48.072;11.682;2024-01-30T03:14:24;5.22;;;3.95;;
21472;SDS011;10898;48.072;11.682;2024-01-30T03:16:26;4.25;;;3.83;;
21472;SDS011;10898;48.072;11.682;2024-01-30T03:18:27;4.97;;;4.07;;
21472;SDS011;10898;48.072;11.682;2024-01-30T03:20:29;4.43;;;3.78;;
21472;SDS011;10898;48.072;11.682;2024-01-30T03:22:31;4.72;;;4.07;;
21472;SDS011;10898;48.072;11.682;2024-01-30T03:24:33;4.97;;;4.47;;
21472;SDS011;10898;48.072;11.682;2024-01-30T03:26:35;4.40;;;3.90;;
21472;SDS011;10898;48.072;11.682;2024-01-30T03:28:37;4.38;;;3.72;;
21472;SDS011;10898;48.072;11.682;2024-01-30T03:30:38;5.20;;;4.70;;
21472;SDS011;10898;48.072;11.682;2024-01-30T03:32:41;6.65;;;4.40;;
21472;SDS011;10898;48.072;11.682;2024-01-30T03:34:42;5.45;;;4.63;;
21472;SDS011;10898;48.072;11.682;2024-01-30T03:36:45;5.53;;;4.22;;
21472;SDS011;10898;48.072;11.682;2024-01-30T03:38:46;5.50;;;4.47;;
21472;SDS011;10898;48.072;11.682;2024-01-30T03:40:48;5.75;;;4.32;;
21472;SDS011;10898;48.072;11.682;2024-01-30T03:42:50;5.72;;;4.28;;
21472;SDS011;10898;48.072;11.682;2024-01-30T03:44:52;5.75;;;4.13;;
21472;SDS011;10898;48.072;11.682;2024-01-30T03:46:54;4.78;;;4.13;;
21472;SDS011;10898;48.072;11.682;2024-01-30T03:48:56;4.88;;;3.58;;
21472;SDS011;10898;48.072;11.682;2024-01-30T03:50:58;6.00;;;3.65;;
21472;SDS011;10898;48.072;11.682;2024-01-30T03:53:00;4.32;;;3.78;;
21472;SDS011;10898;48.072;11.682;2024-01-30T03:55:02;4.75;;;3.97;;
21472;SDS011;10898;48.072;11.682;2024-01-30T03:57:04;4.70;;;3.78;;
21472;SDS011;10898;48.072;11.682;2024-01-30T03:59:06;3.70;;;3.15;;
21472;SDS011;10898;48.072;11.682;2024-01-30T04:01:12;3.92;;;3.53;;
21472;SDS011;10898;48.072;11.682;2024-01-30T04:03:15;5.22;;;3.47;;
21472;SDS011;10898;48.072;11.682;2024-01-30T04:05:17;3.15;;;2.85;;
21472;SDS011;10898;48.072;11.682;2024-01-30T04:07:20;3.83;;;3.22;;
21472;SDS011;10898;48.072;11.682;2024-01-30T04:09:25;3.60;;;2.92;;
21472;SDS011;10898;48.072;11.682;2024-01-30T04:11:27;3.28;;;2.95;;
21472;SDS011;10898;48.072;11.682;2024-01-30T04:13:29;4.07;;;3.33;;
21472;SDS011;10898;48.072;11.682;2024-01-30T04:15:31;3.53;;;3.15;;
21472;SDS011;10898;48.072;11.682;2024-01-30T04:19:39;5.00;;;3.08;;
21472;SDS011;10898;48.072;11.682;2024-01-30T04:21:42;3.47;;;3.17;;
21472;SDS011;10898;48.072;11.682;2024-01-30T04:23:43;4.28;;;2.88;;
21472;SDS011;10898;48.072;11.682;2024-01-30T04:25:45;3.50;;;2.92;;
21472;SDS011;10898;48.072;11.682;2024-01-30T04:27:47;4.05;;;3.22;;
21472;SDS011;10898;48.072;11.682;2024-01-30T04:29:49;4.00;;;3.00;;
21472;SDS011;10898;48.072;11.682;2024-01-30T04:31:51;3.25;;;2.95;;
21472;SDS011;10898;48.072;11.682;2024-01-30T04:33:53;3.92;;;2.70;;
21472;SDS011;10898;48.072;11.682;2024-01-30T04:35:55;3.30;;;3.03;;
21472;SDS011;10898;48.072;11.682;2024-01-30T04:37:56;3.72;;;3.00;;
21472;SDS011;10898;48.072;11.682;2024-01-30T04:39:58;4.32;;;2.72;;
21472;SDS011;10898;48.072;11.682;2024-01-30T04:42:00;4.20;;;3.40;;
21472;SDS011;10898;48.072;11.682;2024-01-30T04:44:02;4.40;;;4.00;;
21472;SDS011;10898;48.072;11.682;2024-01-30T04:46:04;6.28;;;4.10;;
21472;SDS011;10898;48.072;11.682;2024-01-30T04:50:08;3.80;;;3.10;;
21472;SDS011;10898;48.072;11.682;2024-01-30T04:52:10;3.50;;;3.05;;
21472;SDS011;10898;48.072;11.682;2024-01-30T04:54:12;5.18;;;3.78;;
21472;SDS011;10898;48.072;11.682;2024-01-30T04:56:14;4.18;;;3.78;;
21472;SDS011;10898;48.072;11.682;2024-01-30T04:58:16;4.00;;;3.30;;
21472;SDS011;10898;48.072;11.682;2024-01-30T05:00:18;3.05;;;2.75;;
21472;SDS011;10898;48.072;11.682;2024-01-30T05:02:20;3.25;;;2.75;;
21472;SDS011;10898;48.072;11.682;2024-01-30T05:04:21;3.42;;;3.13;;
21472;SDS011;10898;48.072;11.682;2024-01-30T05:06:24;3.70;;;2.78;;
21472;SDS011;10898;48.072;11.682;2024-01-30T05:08:27;3.38;;;3.08;;
21472;SDS011;10898;48.072;11.682;2024-01-30T05:10:28;3.55;;;2.90;;
21472;SDS011;10898;48.072;11.682;2024-01-30T05:12:31;3.60;;;2.55;;
21472;SDS011;10898;48.072;11.682;2024-01-30T05:14:33;3.72;;;3.17;;
21472;SDS011;10898;48.072;11.682;2024-01-30T05:16:34;4.07;;;2.90;;
21472;SDS011;10898;48.072;11.682;2024-01-30T05:18:36;3.13;;;2.88;;
21472;SDS011;10898;48.072;11.682;2024-01-30T05:20:38;3.28;;;3.00;;
21472;SDS011;10898;48.072;11.682;2024-01-30T05:22:40;5.13;;;3.58;;
21472;SDS011;10898;48.072;11.682;2024-01-30T05:24:46;4.20;;;3.58;;
21472;SDS011;10898;48.072;11.682;2024-01-30T05:26:48;4.47;;;3.30;;
21472;SDS011;10898;48.072;11.682;2024-01-30T05:28:51;3.90;;;3.10;;
21472;SDS011;10898;48.072;11.682;2024-01-30T05:30:53;2.75;;;2.55;;
21472;SDS011;10898;48.072;11.682;2024-01-30T05:32:54;4.40;;;2.90;;
21472;SDS011;10898;48.072;11.682;2024-01-30T05:34:56;3.17;;;2.97;;
21472;SDS011;10898;48.072;11.682;2024-01-30T05:36:58;3.30;;;3.00;;
21472;SDS011;10898;48.072;11.682;2024-01-30T05:39:00;3.53;;;3.22;;
21472;SDS011;10898;48.072;11.682;2024-01-30T05:41:02;3.83;;;3.45;;
21472;SDS011;10898;48.072;11.682;2024-01-30T05:43:04;3.92;;;3.60;;
21472;SDS011;10898;48.072;11.682;2024-01-30T05:45:06;3.45;;;3.15;;
21472;SDS011;10898;48.072;11.682;2024-01-30T05:47:08;3.63;;;2.63;;
21472;SDS011;10898;48.072;11.682;2024-01-30T05:49:09;3.35;;;3.08;;
21472;SDS011;10898;48.072;11.682;2024-01-30T05:51:11;4.10;;;3.15;;
21472;SDS011;10898;48.072;11.682;2024-01-30T05:53:13;3.72;;;3.15;;
21472;SDS011;10898;48.072;11.682;2024-01-30T05:55:15;3.65;;;3.35;;
21472;SDS011;10898;48.072;11.682;2024-01-30T05:57:17;3.63;;;3.33;;
21472;SDS011;10898;48.072;11.682;2024-01-30T05:59:19;3.50;;;3.20;;
21472;SDS011;10898;48.072;11.682;2024-01-30T06:01:21;3.60;;;3.30;;
21472;SDS011;10898;48.072;11.682;2024-01-30T06:03:22;3.03;;;2.83;;
21472;SDS011;10898;48.072;11.682;2024-01-30T06:05:25;3.97;;;3.00;;
21472;SDS011;10898;48.072;11.682;2024-01-30T06:07:26;3.75;;;3.40;;
21472;SDS011;10898;48.072;11.682;2024-01-30T06:09:32;3.85;;;2.90;;
21472;SDS011;10898;48.072;11.682;2024-01-30T06:11:34;3.50;;;3.20;;
21472;SDS011;10898;48.072;11.682;2024-01-30T06:13:36;3.55;;;3.25;;
21472;SDS011;10898;48.072;11.682;2024-01-30T06:15:38;3.30;;;3.00;;
21472;SDS011;10898;48.072;11.682;2024-01-30T06:17:40;3.88;;;3.08;;
21472;SDS011;10898;48.072;11.682;2024-01-30T06:19:42;3.75;;;3.38;;
21472;SDS011;10898;48.072;11.682;2024-01-30T06:21:44;4.00;;;3.60;;
21472;SDS011;10898;48.072;11.682;2024-01-30T06:23:46;5.13;;;3.08;;
21472;SDS011;10898;48.072;11.682;2024-01-30T06:25:48;3.53;;;3.10;;
21472;SDS011;10898;48.072;11.682;2024-01-30T06:27:50;2.88;;;2.60;;
21472;SDS011;10898;48.072;11.682;2024-01-30T06:29:52;3.53;;;3.13;;
21472;SDS011;10898;48.072;11.682;2024-01-30T06:31:53;4.80;;;3.50;;
21472;SDS011;10898;48.072;11.682;2024-01-30T06:33:55;4.35;;;3.33;;
21472;SDS011;10898;48.072;11.682;2024-01-30T06:35:57;4.88;;;3.35;;
21472;SDS011;10898;48.072;11.682;2024-01-30T06:37:59;4.57;;;3.95;;
21472;SDS011;10898;48.072;11.682;2024-01-30T06:40:01;4.25;;;3.58;;
21472;SDS011;10898;48.072;11.682;2024-01-30T06:42:03;5.13;;;3.88;;
21472;SDS011;10898;48.072;11.682;2024-01-30T06:46:09;4.50;;;4.05;;
21472;SDS011;10898;48.072;11.682;2024-01-30T06:48:11;4.88;;;4.00;;
21472;SDS011;10898;48.072;11.682;2024-01-30T06:50:13;4.25;;;3.85;;
21472;SDS011;10898;48.072;11.682;2024-01-30T06:52:15;4.35;;;3.95;;
21472;SDS011;10898;48.072;11.682;2024-01-30T06:54:17;5.18;;;4.15;;
21472;SDS011;10898;48.072;11.682;2024-01-30T06:56:18;4.38;;;3.92;;
21472;SDS011;10898;48.072;11.682;2024-01-30T06:58:22;4.57;;;4.03;;
21472;SDS011;10898;48.072;11.682;2024-01-30T07:00:24;5.32;;;4.30;;
21472;SDS011;10898;48.072;11.682;2024-01-30T07:02:26;4.72;;;4.32;;
21472;SDS011;10898;48.072;11.682;2024-01-30T07:04:28;4.25;;;3.50;;
21472;SDS011;10898;48.072;11.682;2024-01-30T07:06:30;4.50;;;4.10;;
21472;SDS011;10898;48.072;11.682;2024-01-30T07:08:31;5.97;;;4.38;;
21472;SDS011;10898;48.072;11.682;2024-01-30T07:10:33;4.93;;;4.43;;
21472;SDS011;10898;48.072;11.682;2024-01-30T07:12:35;5.20;;;4.70;;
21472;SDS011;10898;48.072;11.682;2024-01-30T07:14:37;4.88;;;4.47;;
21472;SDS011;10898;48.072;11.682;2024-01-30T07:16:39;6.30;;;4.57;;
21472;SDS011;10898;48.072;11.682;2024-01-30T07:18:41;6.75;;;4.45;;
21472;SDS011;10898;48.072;11.682;2024-01-30T07:20:43;4.93;;;4.40;;
21472;SDS011;10898;48.072;11.682;2024-01-30T07:22:47;4.40;;;4.00;;
21472;SDS011;10898;48.072;11.682;2024-01-30T07:24:49;4.47;;;4.07;;
21472;SDS011;10898;48.072;11.682;2024-01-30T07:26:53;4.22;;;3.70;;
21472;SDS011;10898;48.072;11.682;2024-01-30T07:28:54;4.20;;;3.80;;
21472;SDS011;10898;48.072;11.682;2024-01-30T07:30:56;4.78;;;4.05;;
21472;SDS011;10898;48.072;11.682;2024-01-30T07:32:58;5.00;;;3.50;;
21472;SDS011;10898;48.072;11.682;2024-01-30T07:35:00;4.10;;;3.70;;
21472;SDS011;10898;48.072;11.682;2024-01-30T07:37:09;5.40;;;3.10;;
21472;SDS011;10898;48.072;11.682;2024-01-30T07:39:12;3.60;;;3.00;;
21472;SDS011;10898;48.072;11.682;2024-01-30T07:41:13;3.92;;;3.50;;
21472;SDS011;10898;48.072;11.682;2024-01-30T07:43:15;3.53;;;3.22;;
21472;SDS011;10898;48.072;11.682;2024-01-30T07:45:17;3.35;;;3.05;;
21472;SDS011;10898;48.072;11.682;2024-01-30T07:47:23;3.47;;;3.17;;
21472;SDS011;10898;48.072;11.682;2024-01-30T07:49:25;2.88;;;2.67;;
21472;SDS011;10898;48.072;11.682;2024-01-30T07:51:27;3.95;;;3.47;;
21472;SDS011;10898;48.072;11.682;2024-01-30T07:53:30;3.85;;;3.10;;
21472;SDS011;10898;48.072;11.682;2024-01-30T07:55:32;2.40;;;2.20;;
21472;SDS011;10898;48.072;11.682;2024-01-30T07:57:34;2.80;;;2.60;;
21472;SDS011;10898;48.072;11.682;2024-01-30T07:59:36;3.25;;;2.85;;
21472;SDS011;10898;48.072;11.682;2024-01-30T08:01:38;3.20;;;2.90;;
21472;SDS011;10898;48.072;11.682;2024-01-30T08:03:40;3.80;;;2.95;;
21472;SDS011;10898;48.072;11.682;2024-01-30T08:05:43;4.35;;;3.10;;
21472;SDS011;10898;48.072;11.682;2024-01-30T08:07:44;3.72;;;3.25;;
21472;SDS011;10898;48.072;11.682;2024-01-30T08:09:47;3.22;;;2.88;;
21472;SDS011;10898;48.072;11.682;2024-01-30T08:11:49;3.20;;;2.88;;
21472;SDS011;10898;48.072;11.682;2024-01-30T08:13:52;3.25;;;2.95;;
21472;SDS011;10898;48.072;11.682;2024-01-30T08:17:56;2.80;;;2.50;;
21472;SDS011;10898;48.072;11.682;2024-01-30T08:19:59;2.95;;;2.75;;
21472;SDS011;10898;48.072;11.682;2024-01-30T08:22:01;3.50;;;3.15;;
21472;SDS011;10898;48.072;11.682;2024-01-30T08:24:03;6.60;;;3.55;;
21472;SDS011;10898;48.072;11.682;2024-01-30T08:26:06;5.40;;;3.55;;
21472;SDS011;10898;48.072;11.682;2024-01-30T08:28:07;6.40;;;3.85;;
21472;SDS011;10898;48.072;11.682;2024-01-30T08:30:09;3.58;;;3.28;;
21472;SDS011;10898;48.072;11.682;2024-01-30T08:32:11;5.13;;;3.05;;
21472;SDS011;10898;48.072;11.682;2024-01-30T08:34:13;3.38;;;2.80;;
21472;SDS011;10898;48.072;11.682;2024-01-30T08:36:15;5.20;;;3.65;;
21472;SDS011;10898;48.072;11.682;2024-01-30T08:38:17;8.20;;;3.95;;
21472;SDS011;10898;48.072;11.682;2024-01-30T08:40:20;5.32;;;3.83;;
21472;SDS011;10898;48.072;11.682;2024-01-30T08:42:21;4.85;;;3.40;;
21472;SDS011;10898;48.072;11.682;2024-01-30T08:44:24;7.25;;;3.35;;
21472;SDS011;10898;48.072;11.682;2024-01-30T08:46:26;5.25;;;3.70;;
21472;SDS011;10898;48.072;11.682;2024-01-30T08:48:27;2.88;;;2.60;;
21472;SDS011;10898;48.072;11.682;2024-01-30T08:50:30;3.35;;;2.72;;
21472;SDS011;10898;48.072;11.682;2024-01-30T08:52:34;4.13;;;3.08;;
21472;SDS011;10898;48.072;11.682;2024-01-30T08:54:36;4.57;;;3.00;;
21472;SDS011;10898;48.072;11.682;2024-01-30T08:56:38;3.38;;;3.05;;
21472;SDS011;10898;48.072;11.682;2024-01-30T08:58:39;3.07;;;2.80;;
21472;SDS011;10898;48.072;11.682;2024-01-30T09:00:41;3.25;;;2.67;;
21472;SDS011;10898;48.072;11.682;2024-01-30T09:02:43;3.28;;;2.97;;
21472;SDS011;10898;48.072;11.682;2024-01-30T09:04:45;2.92;;;2.30;;
21472;SDS011;10898;48.072;11.682;2024-01-30T09:06:47;3.72;;;2.55;;
21472;SDS011;10898;48.072;11.682;2024-01-30T09:08:50;3.88;;;2.95;;
21472;SDS011;10898;48.072;11.682;2024-01-30T09:10:52;3.47;;;2.47;;
21472;SDS011;10898;48.072;11.682;2024-01-30T09:12:54;3.30;;;2.58;;
21472;SDS011;10898;48.072;11.682;2024-01-30T09:14:56;3.97;;;3.10;;
21472;SDS011;10898;48.072;11.682;2024-01-30T09:16:57;3.23;;;2.87;;
21472;SDS011;10898;48.072;11.682;2024-01-30T09:18:59;3.30;;;2.50;;
21472;SDS011;10898;48.072;11.682;2024-01-30T09:21:01;2.85;;;2.40;;
21472;SDS011;10898;48.072;11.682;2024-01-30T09:23:03;4.63;;;2.90;;
21472;SDS011;10898;48.072;11.682;2024-01-30T09:25:05;2.20;;;2.03;;
21472;SDS011;10898;48.072;11.682;2024-01-30T09:27:07;2.03;;;1.92;;
21472;SDS011;10898;48.072;11.682;2024-01-30T09:29:09;2.30;;;2.10;;
21472;SDS011;10898;48.072;11.682;2024-01-30T09:31:11;2.00;;;1.90;;
21472;SDS011;10898;48.072;11.682;2024-01-30T09:33:13;1.80;;;1.70;;
21472;SDS011;10898;48.072;11.682;2024-01-30T09:35:15;2.13;;;2.03;;
21472;SDS011;10898;48.072;11.682;2024-01-30T09:37:17;2.00;;;1.90;;
21472;SDS011;10898;48.072;11.682;2024-01-30T09:39:19;1.85;;;1.75;;
21472;SDS011;10898;48.072;11.682;2024-01-30T09:41:21;3.33;;;2.30;;
21472;SDS011;10898;48.072;11.682;2024-01-30T09:43:25;2.30;;;2.10;;
21472;SDS011;10898;48.072;11.682;2024-01-30T09:45:34;1.85;;;1.65;;
21472;SDS011;10898;48.072;11.682;2024-01-30T09:49:42;1.80;;;1.70;;
21472;SDS011;10898;48.072;11.682;2024-01-30T09:51:45;2.08;;;1.88;;
21472;SDS011;10898;48.072;11.682;2024-01-30T09:53:47;2.38;;;1.60;;
21472;SDS011;10898;48.072;11.682;2024-01-30T09:55:50;1.70;;;1.60;;
21472;SDS011;10898;48.072;11.682;2024-01-30T09:57:52;2.58;;;1.73;;
21472;SDS011;10898;48.072;11.682;2024-01-30T09:59:54;1.80;;;1.65;;
21472;SDS011;10898;48.072;11.682;2024-01-30T10:01:56;2.83;;;1.73;;
21472;SDS011;10898;48.072;11.682;2024-01-30T10:03:59;2.28;;;2.08;;
21472;SDS011;10898;48.072;11.682;2024-01-30T10:06:01;1.70;;;1.60;;
21472;SDS011;10898;48.072;11.682;2024-01-30T10:08:07;2.67;;;2.15;;
21472;SDS011;10898;48.072;11.682;2024-01-30T10:10:09;1.88;;;1.77;;
21472;SDS011;10898;48.072;11.682;2024-01-30T10:12:12;4.13;;;2.15;;
21472;SDS011;10898;48.072;11.682;2024-01-30T10:14:15;3.08;;;2.03;;
21472;SDS011;10898;48.072;11.682;2024-01-30T10:16:17;2.78;;;2.00;;
21472;SDS011;10898;48.072;11.682;2024-01-30T10:18:19;2.63;;;2.40;;
21472;SDS011;10898;48.072;11.682;2024-01-30T10:20:21;2.50;;;1.90;;
21472;SDS011;10898;48.072;11.682;2024-01-30T10:24:25;2.28;;;1.85;;
21472;SDS011;10898;48.072;11.682;2024-01-30T10:26:28;3.30;;;2.38;;
21472;SDS011;10898;48.072;11.682;2024-01-30T10:28:30;2.53;;;2.33;;
21472;SDS011;10898;48.072;11.682;2024-01-30T10:30:32;2.73;;;2.10;;
21472;SDS011;10898;48.072;11.682;2024-01-30T10:32:34;2.43;;;1.83;;
21472;SDS011;10898;48.072;11.682;2024-01-30T10:34:36;3.10;;;2.08;;
21472;SDS011;10898;48.072;11.682;2024-01-30T10:36:41;2.95;;;2.22;;
21472;SDS011;10898;48.072;11.682;2024-01-30T10:38:48;2.65;;;2.10;;
21472;SDS011;10898;48.072;11.682;2024-01-30T10:40:52;1.83;;;1.73;;
21472;SDS011;10898;48.072;11.682;2024-01-30T10:42:57;3.17;;;2.05;;
21472;SDS011;10898;48.072;11.682;2024-01-30T10:45:06;3.45;;;1.67;;
21472;SDS011;10898;48.072;11.682;2024-01-30T10:47:14;2.20;;;1.80;;
21472;SDS011;10898;48.072;11.682;2024-01-30T10:49:22;2.78;;;1.85;;
21472;SDS011;10898;48.072;11.682;2024-01-30T10:51:26;1.90;;;1.70;;
21472;SDS011;10898;48.072;11.682;2024-01-30T10:53:29;7.85;;;2.20;;
21472;SDS011;10898;48.072;11.682;2024-01-30T10:55:33;1.88;;;1.50;;
21472;SDS011;10898;48.072;11.682;2024-01-30T10:57:36;1.13;;;1.02;;
21472;SDS011;10898;48.072;11.682;2024-01-30T10:59:38;2.13;;;1.50;;
21472;SDS011;10898;48.072;11.682;2024-01-30T11:03:43;2.88;;;1.40;;
21472;SDS011;10898;48.072;11.682;2024-01-30T11:05:48;1.67;;;1.30;;
21472;SDS011;10898;48.072;11.682;2024-01-30T11:07:52;1.23;;;1.13;;
21472;SDS011;10898;48.072;11.682;2024-01-30T11:11:59;1.02;;;1.00;;
21472;SDS011;10898;48.072;11.682;2024-01-30T11:14:02;1.80;;;1.25;;
21472;SDS011;10898;48.072;11.682;2024-01-30T11:16:04;0.95;;;0.95;;
21472;SDS011;10898;48.072;11.682;2024-01-30T11:18:06;1.35;;;1.15;;
21472;SDS011;10898;48.072;11.682;2024-01-30T11:20:09;1.10;;;1.00;;
21472;SDS011;10898;48.072;11.682;2024-01-30T11:22:21;1.10;;;1.10;;
21472;SDS011;10898;48.072;11.682;2024-01-30T11:24:38;1.60;;;1.48;;
21472;SDS011;10898;48.072;11.682;2024-01-30T11:26:48;1.08;;;1.08;;
21472;SDS011;10898;48.072;11.682;2024-01-30T11:31:08;1.48;;;1.23;;
21472;SDS011;10898;48.072;11.682;2024-01-30T11:33:11;1.58;;;1.10;;
21472;SDS011;10898;48.072;11.682;2024-01-30T11:35:14;1.40;;;1.20;;
21472;SDS011;10898;48.072;11.682;2024-01-30T11:37:17;1.58;;;1.15;;
21472;SDS011;10898;48.072;11.682;2024-01-30T11:39:22;1.38;;;1.27;;
21472;SDS011;10898;48.072;11.682;2024-01-30T11:41:25;1.40;;;1.30;;
21472;SDS011;10898;48.072;11.682;2024-01-30T11:43:27;3.00;;;1.50;;
21472;SDS011;10898;48.072;11.682;2024-01-30T11:45:29;1.53;;;1.43;;
21472;SDS011;10898;48.072;11.682;2024-01-30T11:47:34;1.35;;;1.15;;
21472;SDS011;10898;48.072;11.682;2024-01-30T11:49:37;1.48;;;1.10;;
21472;SDS011;10898;48.072;11.682;2024-01-30T11:51:40;1.95;;;1.30;;
21472;SDS011;10898;48.072;11.682;2024-01-30T11:55:49;2.15;;;1.42;;
21472;SDS011;10898;48.072;11.682;2024-01-30T11:57:54;2.53;;;1.52;;
21472;SDS011;10898;48.072;11.682;2024-01-30T11:59:57;1.65;;;1.55;;
21472;SDS011;10898;48.072;11.682;2024-01-30T12:01:59;1.97;;;1.37;;
21472;SDS011;10898;48.072;11.682;2024-01-30T12:04:01;2.88;;;1.83;;
21472;SDS011;10898;48.072;11.682;2024-01-30T12:06:04;1.75;;;1.65;;
21472;SDS011;10898;48.072;11.682;2024-01-30T12:08:08;3.28;;;1.70;;
21472;SDS011;10898;48.072;11.682;2024-01-30T12:10:16;2.47;;;1.23;;
21472;SDS011;10898;48.072;11.682;2024-01-30T12:12:22;2.85;;;1.50;;
21472;SDS011;10898;48.072;11.682;2024-01-30T12:14:26;1.90;;;1.70;;
21472;SDS011;10898;48.072;11.682;2024-01-30T12:16:28;1.63;;;1.50;;
21472;SDS011;10898;48.072;11.682;2024-01-30T12:18:30;1.87;;;1.70;;
21472;SDS011;10898;48.072;11.682;2024-01-30T12:20:36;1.90;;;1.70;;
21472;SDS011;10898;48.072;11.682;2024-01-30T12:22:39;1.40;;;1.30;;
21472;SDS011;10898;48.072;11.682;2024-01-30T12:24:41;1.77;;;1.30;;
21472;SDS011;10898;48.072;11.682;2024-01-30T12:26:43;1.65;;;1.55;;